Time;durP1;ratioP1;P1;durP2;ratioP2;P2;SDS_P1;SDS_P2;PMS_P1;PMS_P2;Temp;Humidity;BMP_temperature;BMP_pressure;BME280_temperature;BME280_humidity;BME280_pressure;Samples;Min_cycle;Max_cycle;Signal;HPM_P1;HPM_P2
2023/09/07 00:02:14;;;;;;;0.10;0.10;;;17.00;99.90;;;;;;5052241;28;20182;-81
2023/09/07 00:04:39;;;;;;;0.00;0.00;;;17.00;99.90;;;;;;5052938;28;20649;-81
2023/09/07 00:07:05;;;;;;;0.00;0.00;;;17.00;99.90;;;;;;5053847;28;20197;-82
2023/09/07 00:09:30;;;;;;;0.00;0.00;;;17.00;99.90;;;;;;5053618;28;20181;-82
2023/09/07 00:11:56;;;;;;;0.00;0.00;;;16.90;99.90;;;;;;5053605;28;20513;-79
2023/09/07 00:14:21;;;;;;;0.00;0.00;;;16.90;99.90;;;;;;5053619;28;20243;-81
2023/09/07 00:16:47;;;;;;;0.00;0.00;;;16.90;99.90;;;;;;5051850;28;20217;-81
2023/09/07 00:19:12;;;;;;;0.00;0.00;;;16.90;99.90;;;;;;5053204;28;20220;-80
2023/09/07 00:21:38;;;;;;;0.00;0.00;;;16.80;99.90;;;;;;5052989;28;20177;-80
2023/09/07 00:24:05;;;;;;;0.00;0.00;;;16.80;99.90;;;;;;5052180;28;20188;-81
2023/09/07 00:26:31;;;;;;;0.00;0.00;;;16.80;99.90;;;;;;5048698;28;20178;-79
2023/09/07 00:28:56;;;;;;;0.00;0.00;;;16.80;99.90;;;;;;5053032;28;20184;-81
2023/09/07 00:31:22;;;;;;;0.00;0.00;;;16.80;99.90;;;;;;5052094;28;20825;-80
2023/09/07 00:33:47;;;;;;;0.00;0.00;;;16.80;99.90;;;;;;5039710;28;20182;-80
2023/09/07 00:36:13;;;;;;;0.00;0.00;;;16.70;99.90;;;;;;5051696;28;20232;-79
2023/09/07 00:38:38;;;;;;;0.00;0.00;;;16.70;99.90;;;;;;5052902;28;20221;-80
2023/09/07 00:41:04;;;;;;;0.00;0.00;;;16.70;99.90;;;;;;5050899;28;20189;-81
2023/09/07 00:43:30;;;;;;;0.00;0.00;;;16.70;99.90;;;;;;5043749;28;20188;-79
2023/09/07 00:45:56;;;;;;;0.00;0.00;;;16.70;99.90;;;;;;5053165;28;20256;-76
2023/09/07 00:48:21;;;;;;;0.00;0.00;;;16.70;99.90;;;;;;5052853;28;20181;-79
2023/09/07 00:50:47;;;;;;;0.00;0.00;;;16.60;99.90;;;;;;5053015;28;20192;-81
2023/09/07 00:53:14;;;;;;;0.08;0.03;;;16.60;99.90;;;;;;5051688;28;20166;-79
2023/09/07 00:55:40;;;;;;;0.00;0.00;;;16.60;99.90;;;;;;5053032;28;20184;-79
2023/09/07 00:58:06;;;;;;;0.00;0.00;;;16.60;99.90;;;;;;5052853;28;20190;-81
2023/09/07 01:00:33;;;;;;;0.00;0.00;;;16.50;99.90;;;;;;5052643;28;20189;-81
2023/09/07 01:02:59;;;;;;;0.00;0.00;;;16.50;99.90;;;;;;5052937;28;20664;-80
2023/09/07 01:05:32;;;;;;;0.00;0.00;;;16.50;99.90;;;;;;5052999;28;20186;-80
2023/09/07 01:08:09;;;;;;;0.00;0.00;;;16.50;99.90;;;;;;5052356;28;20184;-78
2023/09/07 01:10:35;;;;;;;0.00;0.00;;;16.50;99.90;;;;;;5052334;28;20173;-81
2023/09/07 01:13:00;;;;;;;0.00;0.00;;;16.40;99.90;;;;;;5052538;28;20184;-80
2023/09/07 01:15:26;;;;;;;0.00;0.00;;;16.40;99.90;;;;;;5052299;28;20174;-79
2023/09/07 01:17:52;;;;;;;0.00;0.00;;;16.40;99.90;;;;;;5052103;28;20185;-79
2023/09/07 01:20:18;;;;;;;0.00;0.00;;;16.40;99.90;;;;;;5052353;28;20193;-79
2023/09/07 01:22:44;;;;;;;0.00;0.00;;;16.30;99.90;;;;;;5052349;28;20186;-79
2023/09/07 01:25:10;;;;;;;0.00;0.00;;;16.30;99.90;;;;;;5052046;28;20282;-78
2023/09/07 01:27:36;;;;;;;0.00;0.00;;;16.30;99.90;;;;;;5052288;28;20633;-79
2023/09/07 01:30:03;;;;;;;0.00;0.00;;;16.30;99.90;;;;;;5052167;28;20544;-79
2023/09/07 01:32:28;;;;;;;0.00;0.00;;;16.20;99.90;;;;;;5051939;28;20228;-78
2023/09/07 01:34:57;;;;;;;0.00;0.00;;;16.20;99.90;;;;;;5051828;28;20174;-79
2023/09/07 01:37:23;;;;;;;0.00;0.00;;;16.10;99.90;;;;;;5052171;28;20234;-79
2023/09/07 01:39:49;;;;;;;0.00;0.00;;;16.10;99.90;;;;;;5052192;28;20221;-79
2023/09/07 01:42:15;;;;;;;0.10;0.10;;;16.10;99.90;;;;;;5051988;28;20173;-79
2023/09/07 01:44:40;;;;;;;0.00;0.00;;;16.10;99.90;;;;;;5051727;28;20195;-78
2023/09/07 01:47:06;;;;;;;0.00;0.00;;;16.10;99.90;;;;;;5051812;28;20228;-79
2023/09/07 01:49:32;;;;;;;0.28;0.00;;;16.00;99.90;;;;;;5051366;28;20178;-78
2023/09/07 01:51:57;;;;;;;0.00;0.00;;;16.00;99.90;;;;;;5051758;28;20185;-80
2023/09/07 01:54:23;;;;;;;0.00;0.00;;;16.00;99.90;;;;;;5052253;28;20206;-80
2023/09/07 01:56:48;;;;;;;0.00;0.00;;;16.00;99.90;;;;;;5051560;28;20227;-79
2023/09/07 01:59:14;;;;;;;0.00;0.00;;;16.00;99.90;;;;;;5051456;28;20359;-81
2023/09/07 02:01:40;;;;;;;0.00;0.00;;;16.00;99.90;;;;;;5051789;28;20256;-82
2023/09/07 02:04:05;;;;;;;0.00;0.00;;;16.00;99.90;;;;;;5051961;28;20551;-80
2023/09/07 02:06:31;;;;;;;0.00;0.00;;;16.00;99.90;;;;;;5051620;28;20170;-79
2023/09/07 02:08:57;;;;;;;0.00;0.00;;;16.10;99.90;;;;;;5051270;28;20323;-79
2023/09/07 02:11:22;;;;;;;0.00;0.00;;;16.10;99.90;;;;;;5051725;28;20180;-80
2023/09/07 02:13:48;;;;;;;0.03;0.00;;;16.10;99.90;;;;;;5051339;28;20197;-79
2023/09/07 02:16:14;;;;;;;0.00;0.00;;;16.10;99.90;;;;;;5051165;28;20172;-80
2023/09/07 02:18:43;;;;;;;0.00;0.00;;;16.10;99.90;;;;;;5051611;28;20220;-81
2023/09/07 02:21:09;;;;;;;0.00;0.00;;;16.10;99.90;;;;;;5035834;28;20505;-81
2023/09/07 02:23:36;;;;;;;0.00;0.00;;;16.10;99.90;;;;;;5051248;28;20289;-79
2023/09/07 02:26:02;;;;;;;0.00;0.00;;;16.10;99.90;;;;;;5051387;28;20616;-81
2023/09/07 02:28:28;;;;;;;0.08;0.08;;;16.10;99.90;;;;;;5051745;28;20656;-80
2023/09/07 02:30:54;;;;;;;0.00;0.00;;;16.10;99.90;;;;;;5051471;28;20213;-80
2023/09/07 02:33:20;;;;;;;0.20;0.20;;;16.10;99.90;;;;;;5052212;28;20655;-81
2023/09/07 02:35:47;;;;;;;0.00;0.00;;;16.00;99.90;;;;;;5051237;28;20182;-81
2023/09/07 02:38:13;;;;;;;0.00;0.00;;;16.10;99.90;;;;;;5051097;28;20684;-81
2023/09/07 02:40:42;;;;;;;0.00;0.00;;;16.10;99.90;;;;;;5051361;28;20173;-81
2023/09/07 02:43:08;;;;;;;0.00;0.00;;;16.10;99.90;;;;;;5051155;28;20178;-82
2023/09/07 02:45:34;;;;;;;0.00;0.00;;;16.10;99.90;;;;;;5051377;28;20192;-80
2023/09/07 02:48:00;;;;;;;0.00;0.00;;;16.10;99.90;;;;;;5049920;28;20188;-81
2023/09/07 02:50:25;;;;;;;0.00;0.00;;;16.10;99.90;;;;;;5065002;28;20547;-81
2023/09/07 02:52:51;;;;;;;0.00;0.00;;;16.10;99.90;;;;;;5052983;28;20665;-81
2023/09/07 02:55:16;;;;;;;0.00;0.00;;;16.10;99.90;;;;;;5051211;28;20192;-80
2023/09/07 02:57:42;;;;;;;0.00;0.00;;;16.10;99.90;;;;;;5051142;28;20180;-81
2023/09/07 03:00:09;;;;;;;0.00;0.00;;;16.10;99.90;;;;;;5050876;28;20185;-82
2023/09/07 03:02:35;;;;;;;0.00;0.00;;;16.00;99.90;;;;;;5050107;28;20636;-81
2023/09/07 03:05:01;;;;;;;0.00;0.00;;;16.10;99.90;;;;;;5050419;28;20660;-84
2023/09/07 03:07:29;;;;;;;0.00;0.00;;;16.10;99.90;;;;;;5049677;28;20181;-82
2023/09/07 03:09:55;;;;;;;0.00;0.00;;;16.10;99.90;;;;;;5050618;28;20546;-77
2023/09/07 03:12:21;;;;;;;0.08;0.08;;;16.00;99.90;;;;;;5050486;28;20193;-79
2023/09/07 03:14:46;;;;;;;0.00;0.00;;;16.00;99.90;;;;;;5050661;28;20512;-80
2023/09/07 03:17:12;;;;;;;0.00;0.00;;;16.00;99.90;;;;;;5050691;28;20227;-78
2023/09/07 03:19:37;;;;;;;0.00;0.00;;;16.00;99.90;;;;;;5050254;28;20706;-77
2023/09/07 03:22:03;;;;;;;0.00;0.00;;;16.00;99.90;;;;;;5050181;28;20177;-77
2023/09/07 03:24:29;;;;;;;0.00;0.00;;;16.00;99.90;;;;;;5050069;28;20174;-77
2023/09/07 03:26:54;;;;;;;0.08;0.08;;;16.00;99.90;;;;;;5049756;28;20174;-78
2023/09/07 03:29:20;;;;;;;0.00;0.00;;;16.00;99.90;;;;;;5049254;28;20264;-79
2023/09/07 03:31:45;;;;;;;0.00;0.00;;;15.90;99.90;;;;;;5048761;28;20218;-83
2023/09/07 03:34:11;;;;;;;0.10;0.10;;;15.90;99.90;;;;;;5050290;28;20193;-79
2023/09/07 03:36:36;;;;;;;0.00;0.00;;;15.90;99.90;;;;;;5048646;28;20644;-81
2023/09/07 03:39:02;;;;;;;0.00;0.00;;;15.90;99.90;;;;;;5049961;28;20210;-73
2023/09/07 03:41:30;;;;;;;0.00;0.00;;;15.80;99.90;;;;;;5050105;28;20200;-78
2023/09/07 03:43:56;;;;;;;0.00;0.00;;;15.80;99.90;;;;;;5050294;28;20188;-75
2023/09/07 03:46:22;;;;;;;0.10;0.10;;;15.80;99.90;;;;;;5049382;28;20552;-77
2023/09/07 03:48:47;;;;;;;0.00;0.00;;;15.70;99.90;;;;;;5050260;28;20178;-79
2023/09/07 03:51:13;;;;;;;0.00;0.00;;;15.70;99.90;;;;;;5049475;28;20178;-79
2023/09/07 03:53:39;;;;;;;0.08;0.08;;;15.70;99.90;;;;;;5050092;28;20645;-77
2023/09/07 03:56:05;;;;;;;0.00;0.00;;;15.70;99.90;;;;;;5049973;28;20182;-73
2023/09/07 03:58:30;;;;;;;0.00;0.00;;;15.70;99.90;;;;;;5052450;28;20208;-75
2023/09/07 04:00:59;;;;;;;0.00;0.00;;;15.70;99.90;;;;;;5051452;28;20173;-66
2023/09/07 04:03:25;;;;;;;0.15;0.15;;;15.70;99.90;;;;;;5050450;28;20540;-71
2023/09/07 04:05:51;;;;;;;0.00;0.00;;;15.70;99.90;;;;;;5050527;28;20223;-69
2023/09/07 04:08:16;;;;;;;0.00;0.00;;;15.60;99.90;;;;;;5050215;28;20215;-70
2023/09/07 04:10:42;;;;;;;0.00;0.00;;;15.70;99.90;;;;;;5048942;28;20235;-69
2023/09/07 04:13:07;;;;;;;0.00;0.00;;;15.70;99.90;;;;;;5051689;28;20243;-69
2023/09/07 04:15:53;;;;;;;0.00;0.00;;;15.60;99.90;;;;;;5053577;28;20181;-74
2023/09/07 04:18:19;;;;;;;0.00;0.00;;;15.60;99.90;;;;;;5043368;28;20209;-71
2023/09/07 04:20:44;;;;;;;0.00;0.00;;;15.60;99.90;;;;;;5053180;28;20743;-69
2023/09/07 04:23:10;;;;;;;0.00;0.00;;;15.60;99.90;;;;;;5053721;28;20272;-71
2023/09/07 04:25:36;;;;;;;0.00;0.00;;;15.60;99.90;;;;;;5053559;28;20178;-71
2023/09/07 04:28:02;;;;;;;0.00;0.00;;;15.50;99.90;;;;;;5053461;28;20637;-71
2023/09/07 04:30:27;;;;;;;0.00;0.00;;;15.50;99.90;;;;;;5052707;28;20226;-71
2023/09/07 04:32:53;;;;;;;0.00;0.00;;;15.50;99.90;;;;;;5053001;28;20189;-70
2023/09/07 04:35:18;;;;;;;0.30;0.30;;;15.50;99.90;;;;;;5052714;28;20188;-71
2023/09/07 04:37:45;;;;;;;0.00;0.00;;;15.50;99.90;;;;;;5052969;28;20522;-71
2023/09/07 04:40:10;;;;;;;0.00;0.00;;;15.50;99.90;;;;;;5052538;28;20213;-71
2023/09/07 04:42:38;;;;;;;0.00;0.00;;;15.40;99.90;;;;;;5052721;28;20177;-71
2023/09/07 04:45:05;;;;;;;0.00;0.00;;;15.40;99.90;;;;;;5052544;28;20216;-71
2023/09/07 04:47:31;;;;;;;0.10;0.10;;;15.40;99.90;;;;;;5052479;28;20189;-70
2023/09/07 04:49:57;;;;;;;0.00;0.00;;;15.30;99.90;;;;;;5052286;28;20192;-70
2023/09/07 04:52:23;;;;;;;0.00;0.00;;;15.20;99.90;;;;;;5052731;28;20165;-71
2023/09/07 04:54:48;;;;;;;0.00;0.00;;;15.20;99.90;;;;;;5052394;28;20175;-71
2023/09/07 04:57:17;;;;;;;0.22;0.22;;;15.20;99.90;;;;;;5052203;28;20200;-71
2023/09/07 04:59:43;;;;;;;0.00;0.00;;;15.20;99.90;;;;;;5052439;28;20568;-70
2023/09/07 05:02:09;;;;;;;0.20;0.20;;;15.20;99.90;;;;;;5052234;28;20173;-70
2023/09/07 05:04:34;;;;;;;0.00;0.00;;;15.10;99.90;;;;;;5052587;28;20206;-71
2023/09/07 05:07:00;;;;;;;0.10;0.10;;;15.10;99.90;;;;;;5052238;28;20209;-71
2023/09/07 05:09:26;;;;;;;0.00;0.00;;;15.10;99.90;;;;;;5052111;28;20217;-71
2023/09/07 05:11:52;;;;;;;0.00;0.00;;;15.10;99.90;;;;;;5052242;28;20170;-71
2023/09/07 05:14:18;;;;;;;0.00;0.00;;;15.10;99.90;;;;;;5052661;28;20185;-71
2023/09/07 05:16:44;;;;;;;0.10;0.10;;;15.10;99.90;;;;;;5052522;28;20227;-71
2023/09/07 05:19:09;;;;;;;0.00;0.00;;;15.20;99.90;;;;;;5050847;28;20219;-71
2023/09/07 05:21:35;;;;;;;0.15;0.15;;;15.20;99.90;;;;;;5052185;28;20181;-70
2023/09/07 05:24:00;;;;;;;0.00;0.00;;;15.20;99.90;;;;;;5051578;28;20182;-70
2023/09/07 05:26:26;;;;;;;0.00;0.00;;;15.30;99.90;;;;;;5052392;28;21189;-70
2023/09/07 05:28:51;;;;;;;0.00;0.00;;;15.30;99.90;;;;;;5052501;28;20174;-71
2023/09/07 05:31:17;;;;;;;0.00;0.00;;;15.40;99.90;;;;;;5052323;28;20229;-70
2023/09/07 05:33:42;;;;;;;0.00;0.00;;;15.40;99.90;;;;;;5052490;28;20203;-70
2023/09/07 05:36:08;;;;;;;0.10;0.10;;;15.50;99.90;;;;;;5052321;28;20170;-70
2023/09/07 05:38:34;;;;;;;0.00;0.00;;;15.50;99.90;;;;;;5052372;28;20205;-70
2023/09/07 05:41:00;;;;;;;0.00;0.00;;;15.60;99.90;;;;;;5052469;28;20209;-70
2023/09/07 05:43:25;;;;;;;0.00;0.00;;;15.70;99.90;;;;;;5052552;28;20176;-70
2023/09/07 05:45:51;;;;;;;0.00;0.00;;;15.70;99.90;;;;;;5052331;28;20177;-71
2023/09/07 05:48:16;;;;;;;0.00;0.00;;;15.80;99.90;;;;;;5052499;28;20182;-70
2023/09/07 05:50:43;;;;;;;0.00;0.00;;;15.90;99.90;;;;;;5052407;28;20192;-70
2023/09/07 05:53:09;;;;;;;0.00;0.00;;;16.00;99.90;;;;;;5052062;28;20226;-70
2023/09/07 05:55:34;;;;;;;0.00;0.00;;;16.10;99.90;;;;;;5052234;28;20178;-71
2023/09/07 05:58:04;;;;;;;0.00;0.00;;;16.30;99.90;;;;;;5052121;28;20207;-70
2023/09/07 06:00:30;;;;;;;0.00;0.00;;;16.60;99.90;;;;;;5052028;28;20242;-70
2023/09/07 06:02:55;;;;;;;0.00;0.00;;;17.00;99.90;;;;;;5050825;28;20637;-69
2023/09/07 06:05:21;;;;;;;0.00;0.00;;;17.40;99.90;;;;;;5051808;28;20225;-70
2023/09/07 06:07:47;;;;;;;0.00;0.00;;;17.90;99.90;;;;;;5051963;28;20178;-71
2023/09/07 06:10:12;;;;;;;0.00;0.00;;;18.30;99.90;;;;;;5051879;28;20189;-70
2023/09/07 06:12:38;;;;;;;0.25;0.25;;;18.80;99.90;;;;;;5052061;28;20181;-71
2023/09/07 06:15:04;;;;;;;0.00;0.00;;;19.40;99.90;;;;;;5051909;28;20589;-72
2023/09/07 06:17:29;;;;;;;0.20;0.20;;;19.90;99.90;;;;;;5051814;28;20212;-71
2023/09/07 06:19:55;;;;;;;0.00;0.00;;;20.50;99.90;;;;;;5051870;28;20209;-71
2023/09/07 06:22:21;;;;;;;0.00;0.00;;;21.10;99.90;;;;;;5051758;28;20180;-71
2023/09/07 06:24:47;;;;;;;0.00;0.00;;;21.60;99.90;;;;;;5051659;28;20182;-71
2023/09/07 06:27:12;;;;;;;0.10;0.10;;;22.00;99.90;;;;;;5051665;28;20636;-72
2023/09/07 06:29:38;;;;;;;0.00;0.00;;;22.30;99.90;;;;;;5051770;28;20182;-72
2023/09/07 06:32:04;;;;;;;0.00;0.00;;;22.50;99.90;;;;;;5051334;28;20217;-72
2023/09/07 06:34:29;;;;;;;0.00;0.00;;;22.80;99.90;;;;;;5051653;28;20652;-72
2023/09/07 06:36:55;;;;;;;0.00;0.00;;;23.00;99.80;;;;;;5051481;28;20181;-72
2023/09/07 06:39:20;;;;;;;0.00;0.00;;;23.30;99.10;;;;;;5051331;28;20252;-72
2023/09/07 06:41:47;;;;;;;0.00;0.00;;;23.60;98.70;;;;;;5051547;28;20633;-72
2023/09/07 06:44:12;;;;;;;0.00;0.00;;;23.80;98.10;;;;;;5051431;28;20268;-72
2023/09/07 06:46:38;;;;;;;0.00;0.00;;;24.00;97.80;;;;;;5051624;28;20209;-71
2023/09/07 06:49:03;;;;;;;0.00;0.00;;;24.20;97.30;;;;;;5051642;28;20258;-71
2023/09/07 06:51:31;;;;;;;0.00;0.00;;;24.40;97.20;;;;;;5051447;28;20307;-72
2023/09/07 06:53:56;;;;;;;0.00;0.00;;;24.80;96.90;;;;;;5051398;28;20177;-71
2023/09/07 06:56:22;;;;;;;0.00;0.00;;;25.10;96.30;;;;;;5051342;28;20169;-69
2023/09/07 06:58:48;;;;;;;0.00;0.00;;;25.50;95.60;;;;;;5051213;28;20716;-69
2023/09/07 07:01:13;;;;;;;0.00;0.00;;;25.90;94.30;;;;;;5051252;28;20173;-69
2023/09/07 07:03:39;;;;;;;0.00;0.00;;;26.20;93.70;;;;;;5051427;28;20181;-69
2023/09/07 07:06:04;;;;;;;0.00;0.00;;;26.50;92.80;;;;;;5051258;28;20177;-69
2023/09/07 07:08:30;;;;;;;0.00;0.00;;;26.80;92.20;;;;;;5051184;28;20178;-69
2023/09/07 07:10:55;;;;;;;0.00;0.00;;;27.10;91.40;;;;;;5051143;28;20557;-69
2023/09/07 07:13:21;;;;;;;0.00;0.00;;;27.40;90.60;;;;;;5051419;28;20228;-71
2023/09/07 07:15:46;;;;;;;0.15;0.15;;;27.60;90.50;;;;;;5051097;28;20176;-71
2023/09/07 07:18:12;;;;;;;0.00;0.00;;;28.00;90.20;;;;;;5051014;28;20227;-71
2023/09/07 07:20:39;;;;;;;0.00;0.00;;;28.30;87.30;;;;;;5051291;28;20227;-71
2023/09/07 07:23:08;;;;;;;0.15;0.15;;;28.60;84.90;;;;;;5051076;28;20260;-70
2023/09/07 07:25:34;;;;;;;0.28;0.28;;;28.80;84.60;;;;;;5051040;28;20209;-71
2023/09/07 07:28:00;;;;;;;0.00;0.00;;;29.10;81.60;;;;;;5051040;28;20181;-70
2023/09/07 07:30:29;;;;;;;0.00;0.00;;;29.40;80.40;;;;;;5050748;28;20641;-70
2023/09/07 07:32:55;;;;;;;0.00;0.00;;;29.60;77.90;;;;;;5051106;28;20188;-71
2023/09/07 07:35:21;;;;;;;0.00;0.00;;;29.70;77.30;;;;;;5051532;28;20672;-72
2023/09/07 07:37:46;;;;;;;0.00;0.00;;;29.80;75.40;;;;;;5051179;28;20178;-72
2023/09/07 07:40:12;;;;;;;0.00;0.00;;;29.70;75.40;;;;;;5051458;28;20228;-70
2023/09/07 07:42:37;;;;;;;0.00;0.00;;;29.70;74.40;;;;;;5051347;28;20263;-70
2023/09/07 07:45:03;;;;;;;0.03;0.00;;;29.70;73.30;;;;;;5051270;28;20696;-70
2023/09/07 07:47:29;;;;;;;0.00;0.00;;;29.30;72.90;;;;;;5051734;28;20177;-70
2023/09/07 07:49:54;;;;;;;0.32;0.17;;;29.10;73.70;;;;;;5055421;28;20181;-70
2023/09/07 07:52:21;;;;;;;0.00;0.00;;;29.30;75.70;;;;;;5055079;28;20180;-71
2023/09/07 07:54:47;;;;;;;0.00;0.00;;;29.70;73.40;;;;;;5054996;28;20247;-71
2023/09/07 07:57:12;;;;;;;1.00;0.20;;;29.90;72.40;;;;;;5054786;28;20177;-71
2023/09/07 07:59:38;;;;;;;0.00;0.00;;;30.00;70.90;;;;;;5053633;28;20308;-70
2023/09/07 08:02:05;;;;;;;0.00;0.00;;;30.10;71.40;;;;;;5054675;28;20165;-70
2023/09/07 08:04:32;;;;;;;0.40;0.40;;;30.40;70.10;;;;;;5054601;28;20675;-70
2023/09/07 08:07:03;;;;;;;0.00;0.00;;;30.50;69.20;;;;;;5054657;28;20177;-70
2023/09/07 08:09:32;;;;;;;0.20;0.00;;;30.40;68.80;;;;;;5054557;28;20532;-71
2023/09/07 08:11:57;;;;;;;0.50;0.47;;;30.30;68.80;;;;;;5054496;28;20178;-72
2023/09/07 08:14:25;;;;;;;0.00;0.00;;;30.40;68.50;;;;;;5054504;28;20756;-71
2023/09/07 08:16:50;;;;;;;0.00;0.00;;;30.40;68.20;;;;;;5054493;28;20166;-71
2023/09/07 08:19:16;;;;;;;0.00;0.00;;;30.50;67.70;;;;;;5054287;28;20750;-71
2023/09/07 08:21:42;;;;;;;0.00;0.00;;;30.60;67.30;;;;;;5054457;28;20597;-71
2023/09/07 08:24:08;;;;;;;0.00;0.00;;;30.40;66.80;;;;;;5054454;28;20177;-71
2023/09/07 08:26:35;;;;;;;0.00;0.00;;;30.20;67.30;;;;;;5054745;28;20177;-70
2023/09/07 08:29:05;;;;;;;0.00;0.00;;;30.30;69.10;;;;;;5054823;28;20169;-71
2023/09/07 08:31:33;;;;;;;0.00;0.00;;;30.70;68.50;;;;;;5053322;28;20221;-71
2023/09/07 08:34:03;;;;;;;0.00;0.00;;;31.00;67.50;;;;;;5054936;28;20656;-71
2023/09/07 08:36:32;;;;;;;0.00;0.00;;;31.30;67.40;;;;;;5054381;28;20579;-71
2023/09/07 08:39:00;;;;;;;0.00;0.00;;;31.60;65.10;;;;;;5054347;28;20227;-71
2023/09/07 08:41:28;;;;;;;0.00;0.00;;;31.60;64.60;;;;;;5054823;28;20664;-71
2023/09/07 08:43:55;;;;;;;0.00;0.00;;;31.60;64.00;;;;;;5054238;28;20551;-71
2023/09/07 08:46:22;;;;;;;0.00;0.00;;;31.60;64.30;;;;;;5053983;28;20172;-71
2023/09/07 08:48:49;;;;;;;0.20;0.20;;;31.60;63.30;;;;;;5053722;28;20177;-71
2023/09/07 08:51:18;;;;;;;0.00;0.00;;;31.60;62.90;;;;;;5053854;28;20591;-71
2023/09/07 08:53:46;;;;;;;0.08;0.08;;;31.50;63.60;;;;;;5053759;28;20645;-71
2023/09/07 08:56:12;;;;;;;0.00;0.00;;;31.50;63.90;;;;;;5053518;28;20185;-71
2023/09/07 08:58:40;;;;;;;0.00;0.00;;;31.50;63.70;;;;;;5053033;28;20204;-71
2023/09/07 09:01:06;;;;;;;0.00;0.00;;;31.20;62.40;;;;;;5052855;28;20189;-71
2023/09/07 09:03:31;;;;;;;0.00;0.00;;;31.10;63.40;;;;;;5053599;28;20162;-71
2023/09/07 09:05:57;;;;;;;0.00;0.00;;;31.00;63.90;;;;;;5053696;28;20656;-71
2023/09/07 09:08:24;;;;;;;0.00;0.00;;;31.00;64.60;;;;;;5053599;28;20280;-71
2023/09/07 09:11:00;;;;;;;0.00;0.00;;;31.00;64.40;;;;;;5053353;28;20249;-71
2023/09/07 09:13:30;;;;;;;0.00;0.00;;;30.80;65.40;;;;;;5053511;28;20208;-71
2023/09/07 09:15:55;;;;;;;0.00;0.00;;;30.90;67.20;;;;;;5053420;28;20264;-70
2023/09/07 09:18:21;;;;;;;0.00;0.00;;;30.90;65.00;;;;;;5053271;28;20360;-71
2023/09/07 09:20:47;;;;;;;0.00;0.00;;;30.60;64.80;;;;;;5053220;28;20208;-71
2023/09/07 09:23:14;;;;;;;0.00;0.00;;;30.30;65.30;;;;;;5053064;28;20224;-71
2023/09/07 09:25:41;;;;;;;0.00;0.00;;;30.20;67.30;;;;;;5053359;28;20205;-71
2023/09/07 09:28:11;;;;;;;0.00;0.00;;;30.10;66.50;;;;;;5052929;28;20185;-71
2023/09/07 09:30:37;;;;;;;0.00;0.00;;;30.20;67.40;;;;;;5052964;28;20375;-71
2023/09/07 09:33:05;;;;;;;0.00;0.00;;;30.30;66.30;;;;;;5052914;28;20173;-70
2023/09/07 09:35:31;;;;;;;0.00;0.00;;;30.30;65.30;;;;;;5052938;28;20253;-71
2023/09/07 09:38:04;;;;;;;0.00;0.00;;;30.10;66.00;;;;;;5052891;28;20217;-70
2023/09/07 09:40:30;;;;;;;0.00;0.00;;;30.10;66.10;;;;;;5052786;28;20205;-71
2023/09/07 09:42:57;;;;;;;0.00;0.00;;;30.20;67.30;;;;;;5052741;28;20264;-70
2023/09/07 09:45:26;;;;;;;0.52;0.32;;;30.00;66.00;;;;;;5052551;28;20227;-71
2023/09/07 09:47:54;;;;;;;0.00;0.00;;;29.90;66.70;;;;;;5052793;28;20172;-71
2023/09/07 09:50:20;;;;;;;0.00;0.00;;;29.90;67.60;;;;;;5052622;28;20186;-71
2023/09/07 09:52:46;;;;;;;0.00;0.00;;;30.00;68.30;;;;;;5052670;28;20516;-71
2023/09/07 09:55:13;;;;;;;0.00;0.00;;;30.00;67.30;;;;;;5052501;28;20260;-71
2023/09/07 09:57:38;;;;;;;0.00;0.00;;;30.00;67.70;;;;;;5052501;28;20174;-71
2023/09/07 10:02:45;;;;;;;0.10;0.10;;;30.30;68.00;;;;;;5052522;28;20260;-71
2023/09/07 10:05:12;;;;;;;0.00;0.00;;;30.60;69.30;;;;;;5052316;28;20268;-71
2023/09/07 10:07:43;;;;;;;0.00;0.00;;;30.80;66.80;;;;;;5052362;28;20193;-71
2023/09/07 10:10:19;;;;;;;0.00;0.00;;;31.00;67.10;;;;;;5051667;28;20645;-71
2023/09/07 10:12:53;;;;;;;0.00;0.00;;;31.40;68.20;;;;;;5052515;28;20181;-71
2023/09/07 10:15:25;;;;;;;0.00;0.00;;;31.60;65.80;;;;;;5052139;28;20173;-71
2023/09/07 10:18:06;;;;;;;0.00;0.00;;;31.90;64.40;;;;;;5051944;28;20208;-71
2023/09/07 10:20:49;;;;;;;0.00;0.00;;;31.90;63.40;;;;;;5052118;28;20755;-70
2023/09/07 10:23:15;;;;;;;0.00;0.00;;;31.90;63.50;;;;;;5051845;28;20268;-70
2023/09/07 10:25:41;;;;;;;0.10;0.10;;;31.80;63.10;;;;;;5051924;28;20257;-71
2023/09/07 10:28:21;;;;;;;0.00;0.00;;;31.60;62.30;;;;;;5051750;28;20934;-71
2023/09/07 10:31:03;;;;;;;0.00;0.00;;;31.60;62.90;;;;;;5051732;28;20256;-71
2023/09/07 10:33:29;;;;;;;0.00;0.00;;;31.50;63.70;;;;;;5051725;28;20177;-71
2023/09/07 10:35:55;;;;;;;0.00;0.00;;;31.60;63.30;;;;;;5051828;28;20184;-71
2023/09/07 10:38:20;;;;;;;0.13;0.13;;;31.70;63.60;;;;;;5051607;28;20723;-68
2023/09/07 10:40:47;;;;;;;0.00;0.00;;;31.70;62.50;;;;;;5051884;28;20219;-68
2023/09/07 10:43:13;;;;;;;0.00;0.00;;;31.80;62.60;;;;;;5051558;28;20300;-70
2023/09/07 10:45:38;;;;;;;0.03;0.03;;;31.80;62.50;;;;;;5051654;28;20635;-70
2023/09/07 10:48:04;;;;;;;0.00;0.00;;;31.70;62.60;;;;;;5051468;28;20192;-69
2023/09/07 10:50:30;;;;;;;0.00;0.00;;;31.50;62.70;;;;;;5051439;28;20652;-69
2023/09/07 10:52:56;;;;;;;0.00;0.00;;;31.40;63.40;;;;;;5051604;28;20200;-69
2023/09/07 10:55:21;;;;;;;0.00;0.00;;;31.40;64.00;;;;;;5051501;28;20652;-70
2023/09/07 10:57:48;;;;;;;0.03;0.03;;;31.40;62.60;;;;;;5050146;28;20170;-71
2023/09/07 11:00:14;;;;;;;0.00;0.00;;;31.30;63.20;;;;;;5051218;28;20601;-69
2023/09/07 11:02:43;;;;;;;0.00;0.00;;;31.30;63.20;;;;;;5051385;28;20255;-71
2023/09/07 11:05:10;;;;;;;0.00;0.00;;;31.40;62.60;;;;;;5051298;28;20180;-71
2023/09/07 11:07:36;;;;;;;0.00;0.00;;;31.30;62.70;;;;;;5051419;28;20303;-71
2023/09/07 11:10:06;;;;;;;0.70;0.63;;;31.30;63.30;;;;;;5051330;28;20177;-70
2023/09/07 11:12:40;;;;;;;0.00;0.00;;;31.30;62.90;;;;;;5051317;28;20185;-71
2023/09/07 11:15:09;;;;;;;0.00;0.00;;;31.10;63.00;;;;;;5051307;28;20177;-70
2023/09/07 11:17:38;;;;;;;0.00;0.00;;;31.10;62.80;;;;;;5051319;28;20174;-70
2023/09/07 11:20:06;;;;;;;0.00;0.00;;;31.00;63.30;;;;;;5051066;28;20223;-70
2023/09/07 11:22:32;;;;;;;0.00;0.00;;;30.90;62.40;;;;;;5051751;28;20260;-70
2023/09/07 11:25:00;;;;;;;0.00;0.00;;;31.00;62.40;;;;;;5055448;28;20204;-70
2023/09/07 11:27:29;;;;;;;0.00;0.00;;;31.20;62.80;;;;;;5055220;28;20161;-71
2023/09/07 11:29:56;;;;;;;0.10;0.00;;;31.30;61.50;;;;;;5055125;28;20636;-71
2023/09/07 11:32:23;;;;;;;0.00;0.00;;;31.40;61.60;;;;;;5055131;28;20232;-70
2023/09/07 11:34:52;;;;;;;0.00;0.00;;;31.50;61.20;;;;;;5055086;28;20170;-71
2023/09/07 11:37:23;;;;;;;0.00;0.00;;;31.60;60.90;;;;;;5055061;28;20178;-71
2023/09/07 11:39:49;;;;;;;0.10;0.10;;;31.70;61.10;;;;;;5055016;28;20566;-70
2023/09/07 11:42:15;;;;;;;0.00;0.00;;;32.00;61.50;;;;;;5055040;28;20174;-70
2023/09/07 11:44:40;;;;;;;0.10;0.10;;;32.00;60.00;;;;;;5053720;28;20583;-70
2023/09/07 11:47:06;;;;;;;0.00;0.00;;;31.80;59.20;;;;;;5054971;28;20178;-71
2023/09/07 11:49:32;;;;;;;0.10;0.10;;;31.80;60.30;;;;;;5055057;28;20184;-71
2023/09/07 11:51:58;;;;;;;0.00;0.00;;;31.80;60.20;;;;;;5054940;28;20246;-70
2023/09/07 11:54:23;;;;;;;0.30;0.13;;;31.80;60.60;;;;;;5054851;28;20205;-70
2023/09/07 11:56:49;;;;;;;0.00;0.00;;;31.70;59.80;;;;;;5054719;28;20197;-70
2023/09/07 11:59:17;;;;;;;0.00;0.00;;;31.60;60.60;;;;;;5054626;28;20288;-70
2023/09/07 12:01:43;;;;;;;0.10;0.10;;;31.60;60.60;;;;;;5054821;28;20177;-70
2023/09/07 12:04:08;;;;;;;0.00;0.00;;;31.50;60.30;;;;;;5054547;28;20335;-70
2023/09/07 12:06:34;;;;;;;0.00;0.00;;;31.50;61.30;;;;;;5054668;28;20645;-70
2023/09/07 12:09:01;;;;;;;0.00;0.00;;;31.50;61.30;;;;;;5054572;28;20269;-70
2023/09/07 12:11:27;;;;;;;0.00;0.00;;;31.60;60.60;;;;;;5054417;28;20751;-71
2023/09/07 12:13:52;;;;;;;0.00;0.00;;;31.80;59.80;;;;;;5054587;28;20182;-70
2023/09/07 12:16:18;;;;;;;0.00;0.00;;;31.70;59.50;;;;;;5054381;28;20210;-71
2023/09/07 12:18:43;;;;;;;0.00;0.00;;;31.60;60.90;;;;;;5054358;28;20209;-70
2023/09/07 12:21:09;;;;;;;0.00;0.00;;;31.70;60.00;;;;;;5054223;28;20178;-70
2023/09/07 12:23:34;;;;;;;0.00;0.00;;;31.80;60.10;;;;;;5054463;28;20164;-71
2023/09/07 12:26:04;;;;;;;0.00;0.00;;;31.80;59.40;;;;;;5054329;28;20535;-70
2023/09/07 12:28:30;;;;;;;0.00;0.00;;;31.70;59.50;;;;;;5054059;28;20182;-70
2023/09/07 12:30:56;;;;;;;0.10;0.10;;;31.50;59.50;;;;;;5053928;28;20236;-70
2023/09/07 12:33:21;;;;;;;0.00;0.00;;;31.60;59.90;;;;;;5053904;28;20540;-70
2023/09/07 12:35:47;;;;;;;0.00;0.00;;;31.80;60.10;;;;;;5053997;28;20644;-72
2023/09/07 12:38:17;;;;;;;0.00;0.00;;;31.80;59.20;;;;;;5053903;28;20177;-71
2023/09/07 12:40:43;;;;;;;0.00;0.00;;;31.80;59.10;;;;;;5054102;28;20186;-71
2023/09/07 12:43:09;;;;;;;0.00;0.00;;;31.60;59.20;;;;;;5053772;28;20184;-71
2023/09/07 12:45:35;;;;;;;0.15;0.15;;;31.50;58.70;;;;;;5053887;28;20547;-71
2023/09/07 12:48:01;;;;;;;1.15;0.10;;;31.30;59.20;;;;;;5053845;28;20170;-70